sensor_id;sensor_type;location;lat;lon;timestamp;P1;durP1;ratioP1;P2;durP2;ratioP2
74963;SDS011;63521;51.900;4.748;2023-03-01T00:01:09;4.43;;;2.22;;
74963;SDS011;63521;51.900;4.748;2023-03-01T00:03:45;4.72;;;2.50;;
74963;SDS011;63521;51.900;4.748;2023-03-01T00:06:11;4.18;;;2.42;;
74963;SDS011;63521;51.900;4.748;2023-03-01T00:08:37;5.45;;;2.63;;
74963;SDS011;63521;51.900;4.748;2023-03-01T00:13:33;5.05;;;2.70;;
74963;SDS011;63521;51.900;4.748;2023-03-01T00:15:59;4.38;;;2.28;;
74963;SDS011;63521;51.900;4.748;2023-03-01T00:18:30;4.63;;;2.28;;
74963;SDS011;63521;51.900;4.748;2023-03-01T00:20:55;4.03;;;1.98;;
74963;SDS011;63521;51.900;4.748;2023-03-01T00:25:47;3.53;;;1.80;;
74963;SDS011;63521;51.900;4.748;2023-03-01T00:28:12;4.03;;;2.38;;
74963;SDS011;63521;51.900;4.748;2023-03-01T00:33:03;3.83;;;2.30;;
74963;SDS011;63521;51.900;4.748;2023-03-01T00:35:29;4.30;;;2.40;;
74963;SDS011;63521;51.900;4.748;2023-03-01T00:37:55;4.68;;;2.47;;
74963;SDS011;63521;51.900;4.748;2023-03-01T00:40:29;3.40;;;2.03;;
74963;SDS011;63521;51.900;4.748;2023-03-01T00:42:55;3.58;;;2.17;;
74963;SDS011;63521;51.900;4.748;2023-03-01T00:45:20;4.63;;;2.50;;
74963;SDS011;63521;51.900;4.748;2023-03-01T00:50:12;4.85;;;2.50;;
74963;SDS011;63521;51.900;4.748;2023-03-01T00:52:37;5.63;;;2.58;;
74963;SDS011;63521;51.900;4.748;2023-03-01T00:57:29;4.70;;;2.38;;
74963;SDS011;63521;51.900;4.748;2023-03-01T00:59:54;3.25;;;2.03;;
74963;SDS011;63521;51.900;4.748;2023-03-01T01:02:20;4.03;;;2.50;;
74963;SDS011;63521;51.900;4.748;2023-03-01T01:04:46;4.65;;;2.65;;
74963;SDS011;63521;51.900;4.748;2023-03-01T01:09:37;3.78;;;1.92;;
74963;SDS011;63521;51.900;4.748;2023-03-01T01:14:28;4.00;;;1.95;;
74963;SDS011;63521;51.900;4.748;2023-03-01T01:16:56;4.30;;;2.13;;
74963;SDS011;63521;51.900;4.748;2023-03-01T01:19:21;4.20;;;2.42;;
74963;SDS011;63521;51.900;4.748;2023-03-01T01:21:47;3.47;;;1.90;;
74963;SDS011;63521;51.900;4.748;2023-03-01T01:26:38;4.13;;;2.20;;
74963;SDS011;63521;51.900;4.748;2023-03-01T01:31:30;6.28;;;2.15;;
74963;SDS011;63521;51.900;4.748;2023-03-01T01:33:56;3.53;;;2.10;;
74963;SDS011;63521;51.900;4.748;2023-03-01T01:36:22;3.88;;;1.90;;
74963;SDS011;63521;51.900;4.748;2023-03-01T01:41:14;4.57;;;2.20;;
74963;SDS011;63521;51.900;4.748;2023-03-01T01:46:16;5.22;;;2.47;;
74963;SDS011;63521;51.900;4.748;2023-03-01T01:48:43;5.68;;;2.08;;
74963;SDS011;63521;51.900;4.748;2023-03-01T01:51:12;3.70;;;2.08;;
74963;SDS011;63521;51.900;4.748;2023-03-01T01:53:39;4.22;;;2.20;;
74963;SDS011;63521;51.900;4.748;2023-03-01T01:56:05;5.15;;;2.58;;
74963;SDS011;63521;51.900;4.748;2023-03-01T01:58:32;4.95;;;2.70;;
74963;SDS011;63521;51.900;4.748;2023-03-01T02:00:58;4.28;;;2.55;;
74963;SDS011;63521;51.900;4.748;2023-03-01T02:03:26;4.45;;;2.65;;
74963;SDS011;63521;51.900;4.748;2023-03-01T02:06:04;5.15;;;2.63;;
74963;SDS011;63521;51.900;4.748;2023-03-01T02:08:33;4.93;;;2.75;;
74963;SDS011;63521;51.900;4.748;2023-03-01T02:11:00;4.38;;;2.33;;
74963;SDS011;63521;51.900;4.748;2023-03-01T02:13:28;5.50;;;2.67;;
74963;SDS011;63521;51.900;4.748;2023-03-01T02:15:55;4.80;;;2.70;;
74963;SDS011;63521;51.900;4.748;2023-03-01T02:23:30;5.43;;;2.55;;
74963;SDS011;63521;51.900;4.748;2023-03-01T02:28:30;4.22;;;2.38;;
74963;SDS011;63521;51.900;4.748;2023-03-01T02:30:59;5.22;;;2.45;;
74963;SDS011;63521;51.900;4.748;2023-03-01T02:33:44;7.00;;;2.25;;
74963;SDS011;63521;51.900;4.748;2023-03-01T02:36:15;4.85;;;2.20;;
74963;SDS011;63521;51.900;4.748;2023-03-01T02:38:42;6.45;;;2.53;;
74963;SDS011;63521;51.900;4.748;2023-03-01T02:41:08;4.93;;;2.60;;
74963;SDS011;63521;51.900;4.748;2023-03-01T02:43:37;5.28;;;2.40;;
74963;SDS011;63521;51.900;4.748;2023-03-01T02:46:05;4.78;;;2.40;;
74963;SDS011;63521;51.900;4.748;2023-03-01T02:48:44;5.35;;;2.40;;
74963;SDS011;63521;51.900;4.748;2023-03-01T02:51:19;4.75;;;2.38;;
74963;SDS011;63521;51.900;4.748;2023-03-01T02:56:25;6.43;;;2.75;;
74963;SDS011;63521;51.900;4.748;2023-03-01T03:01:17;3.92;;;2.45;;
74963;SDS011;63521;51.900;4.748;2023-03-01T03:03:43;4.75;;;2.80;;
74963;SDS011;63521;51.900;4.748;2023-03-01T03:06:09;4.40;;;2.40;;
74963;SDS011;63521;51.900;4.748;2023-03-01T03:10:59;5.17;;;2.17;;
74963;SDS011;63521;51.900;4.748;2023-03-01T03:15:53;5.03;;;2.22;;
74963;SDS011;63521;51.900;4.748;2023-03-01T03:18:20;5.38;;;2.63;;
74963;SDS011;63521;51.900;4.748;2023-03-01T03:20:46;6.60;;;2.90;;
74963;SDS011;63521;51.900;4.748;2023-03-01T03:23:12;5.88;;;2.40;;
74963;SDS011;63521;51.900;4.748;2023-03-01T03:28:04;4.75;;;2.53;;
74963;SDS011;63521;51.900;4.748;2023-03-01T03:30:35;4.93;;;2.55;;
74963;SDS011;63521;51.900;4.748;2023-03-01T03:33:04;5.25;;;2.53;;
74963;SDS011;63521;51.900;4.748;2023-03-01T03:35:31;5.47;;;2.60;;
74963;SDS011;63521;51.900;4.748;2023-03-01T03:37:58;4.38;;;2.40;;
74963;SDS011;63521;51.900;4.748;2023-03-01T03:40:36;5.85;;;2.85;;
74963;SDS011;63521;51.900;4.748;2023-03-01T03:43:04;6.03;;;2.50;;
74963;SDS011;63521;51.900;4.748;2023-03-01T03:45:32;5.57;;;2.70;;
74963;SDS011;63521;51.900;4.748;2023-03-01T03:48:00;5.45;;;2.95;;
74963;SDS011;63521;51.900;4.748;2023-03-01T03:50:27;5.68;;;2.80;;
74963;SDS011;63521;51.900;4.748;2023-03-01T03:55:18;5.05;;;2.65;;
74963;SDS011;63521;51.900;4.748;2023-03-01T03:57:45;5.93;;;2.72;;
74963;SDS011;63521;51.900;4.748;2023-03-01T04:02:42;4.32;;;2.17;;
74963;SDS011;63521;51.900;4.748;2023-03-01T04:05:09;5.20;;;2.72;;
74963;SDS011;63521;51.900;4.748;2023-03-01T04:07:36;4.78;;;2.38;;
74963;SDS011;63521;51.900;4.748;2023-03-01T04:10:03;4.65;;;2.45;;
74963;SDS011;63521;51.900;4.748;2023-03-01T04:12:29;5.32;;;2.78;;
74963;SDS011;63521;51.900;4.748;2023-03-01T04:17:20;5.37;;;2.50;;
74963;SDS011;63521;51.900;4.748;2023-03-01T04:22:13;5.03;;;2.65;;
74963;SDS011;63521;51.900;4.748;2023-03-01T04:24:43;5.25;;;2.60;;
74963;SDS011;63521;51.900;4.748;2023-03-01T04:27:10;5.97;;;2.85;;
74963;SDS011;63521;51.900;4.748;2023-03-01T04:29:36;6.05;;;2.75;;
74963;SDS011;63521;51.900;4.748;2023-03-01T04:34:28;4.35;;;2.30;;
74963;SDS011;63521;51.900;4.748;2023-03-01T04:36:54;4.80;;;2.47;;
74963;SDS011;63521;51.900;4.748;2023-03-01T04:41:45;5.05;;;2.35;;
74963;SDS011;63521;51.900;4.748;2023-03-01T04:46:35;5.18;;;2.70;;
74963;SDS011;63521;51.900;4.748;2023-03-01T04:51:27;5.10;;;2.13;;
74963;SDS011;63521;51.900;4.748;2023-03-01T04:53:52;6.30;;;2.65;;
74963;SDS011;63521;51.900;4.748;2023-03-01T04:56:18;7.13;;;2.97;;
74963;SDS011;63521;51.900;4.748;2023-03-01T04:58:45;6.35;;;2.90;;
74963;SDS011;63521;51.900;4.748;2023-03-01T05:03:49;4.93;;;2.13;;
74963;SDS011;63521;51.900;4.748;2023-03-01T05:06:16;4.90;;;2.97;;
74963;SDS011;63521;51.900;4.748;2023-03-01T05:11:07;8.40;;;2.67;;
74963;SDS011;63521;51.900;4.748;2023-03-01T05:13:34;6.28;;;2.83;;
74963;SDS011;63521;51.900;4.748;2023-03-01T05:16:00;6.22;;;3.05;;
74963;SDS011;63521;51.900;4.748;2023-03-01T05:18:26;6.80;;;3.47;;
74963;SDS011;63521;51.900;4.748;2023-03-01T05:21:12;6.97;;;3.10;;
74963;SDS011;63521;51.900;4.748;2023-03-01T05:23:41;7.57;;;3.30;;
74963;SDS011;63521;51.900;4.748;2023-03-01T05:28:31;5.47;;;2.88;;
74963;SDS011;63521;51.900;4.748;2023-03-01T05:33:23;6.35;;;2.83;;
74963;SDS011;63521;51.900;4.748;2023-03-01T05:38:15;8.43;;;3.20;;
74963;SDS011;63521;51.900;4.748;2023-03-01T05:40:41;7.25;;;3.08;;
74963;SDS011;63521;51.900;4.748;2023-03-01T05:45:33;5.13;;;2.78;;
74963;SDS011;63521;51.900;4.748;2023-03-01T05:48:01;8.27;;;3.55;;
74963;SDS011;63521;51.900;4.748;2023-03-01T05:52:57;8.00;;;3.20;;
74963;SDS011;63521;51.900;4.748;2023-03-01T05:55:23;5.43;;;2.80;;
74963;SDS011;63521;51.900;4.748;2023-03-01T06:00:18;7.80;;;3.38;;
74963;SDS011;63521;51.900;4.748;2023-03-01T06:02:44;6.97;;;3.13;;
74963;SDS011;63521;51.900;4.748;2023-03-01T06:07:36;5.78;;;2.95;;
74963;SDS011;63521;51.900;4.748;2023-03-01T06:12:30;5.82;;;2.97;;
74963;SDS011;63521;51.900;4.748;2023-03-01T06:14:58;6.20;;;2.97;;
74963;SDS011;63521;51.900;4.748;2023-03-01T06:19:49;6.10;;;2.58;;
74963;SDS011;63521;51.900;4.748;2023-03-01T06:24:40;6.53;;;2.42;;
74963;SDS011;63521;51.900;4.748;2023-03-01T06:29:31;6.43;;;3.00;;
74963;SDS011;63521;51.900;4.748;2023-03-01T06:34:21;7.13;;;3.33;;
74963;SDS011;63521;51.900;4.748;2023-03-01T06:55:38;4.43;;;2.35;;
74963;SDS011;63521;51.900;4.748;2023-03-01T07:00:29;5.63;;;2.72;;
74963;SDS011;63521;51.900;4.748;2023-03-01T07:05:21;4.82;;;2.33;;
74963;SDS011;63521;51.900;4.748;2023-03-01T07:10:12;5.95;;;2.78;;
74963;SDS011;63521;51.900;4.748;2023-03-01T07:15:03;4.33;;;2.23;;
74963;SDS011;63521;51.900;4.748;2023-03-01T07:17:29;6.60;;;2.53;;
74963;SDS011;63521;51.900;4.748;2023-03-01T07:22:20;6.97;;;2.70;;
74963;SDS011;63521;51.900;4.748;2023-03-01T07:24:45;6.20;;;2.97;;
74963;SDS011;63521;51.900;4.748;2023-03-01T07:29:37;4.40;;;2.35;;
74963;SDS011;63521;51.900;4.748;2023-03-01T07:34:28;5.32;;;2.38;;
74963;SDS011;63521;51.900;4.748;2023-03-01T07:39:19;5.73;;;2.57;;
74963;SDS011;63521;51.900;4.748;2023-03-01T07:44:10;4.70;;;2.50;;
74963;SDS011;63521;51.900;4.748;2023-03-01T07:49:01;5.50;;;2.40;;
74963;SDS011;63521;51.900;4.748;2023-03-01T07:53:51;5.60;;;2.20;;
74963;SDS011;63521;51.900;4.748;2023-03-01T07:58:43;5.35;;;2.08;;
74963;SDS011;63521;51.900;4.748;2023-03-01T08:03:36;5.13;;;2.33;;
74963;SDS011;63521;51.900;4.748;2023-03-01T08:06:02;5.93;;;2.53;;
74963;SDS011;63521;51.900;4.748;2023-03-01T08:08:29;4.35;;;2.55;;
74963;SDS011;63521;51.900;4.748;2023-03-01T08:13:23;6.15;;;2.67;;
74963;SDS011;63521;51.900;4.748;2023-03-01T08:18:15;4.88;;;2.28;;
74963;SDS011;63521;51.900;4.748;2023-03-01T08:20:41;6.78;;;2.60;;
74963;SDS011;63521;51.900;4.748;2023-03-01T08:25:31;4.87;;;2.20;;
74963;SDS011;63521;51.900;4.748;2023-03-01T08:30:22;4.95;;;2.17;;
74963;SDS011;63521;51.900;4.748;2023-03-01T08:32:49;6.28;;;2.60;;
74963;SDS011;63521;51.900;4.748;2023-03-01T08:37:40;4.40;;;2.08;;
74963;SDS011;63521;51.900;4.748;2023-03-01T08:42:32;5.97;;;2.60;;
74963;SDS011;63521;51.900;4.748;2023-03-01T08:47:23;6.78;;;2.85;;
74963;SDS011;63521;51.900;4.748;2023-03-01T08:52:19;4.75;;;2.50;;
74963;SDS011;63521;51.900;4.748;2023-03-01T08:55:46;4.60;;;2.67;;
74963;SDS011;63521;51.900;4.748;2023-03-01T08:58:11;6.28;;;2.92;;
74963;SDS011;63521;51.900;4.748;2023-03-01T09:03:02;6.75;;;3.22;;
74963;SDS011;63521;51.900;4.748;2023-03-01T09:07:53;6.27;;;3.10;;
74963;SDS011;63521;51.900;4.748;2023-03-01T09:10:18;6.60;;;3.53;;
74963;SDS011;63521;51.900;4.748;2023-03-01T09:12:43;6.28;;;3.45;;
74963;SDS011;63521;51.900;4.748;2023-03-01T09:15:09;5.72;;;3.40;;
74963;SDS011;63521;51.900;4.748;2023-03-01T09:17:35;6.32;;;3.50;;
74963;SDS011;63521;51.900;4.748;2023-03-01T09:20:00;5.65;;;2.95;;
74963;SDS011;63521;51.900;4.748;2023-03-01T09:22:26;6.32;;;3.45;;
74963;SDS011;63521;51.900;4.748;2023-03-01T09:24:51;6.30;;;3.42;;
74963;SDS011;63521;51.900;4.748;2023-03-01T09:27:16;6.75;;;3.45;;
74963;SDS011;63521;51.900;4.748;2023-03-01T09:29:44;7.78;;;3.63;;
74963;SDS011;63521;51.900;4.748;2023-03-01T09:32:09;6.20;;;3.53;;
74963;SDS011;63521;51.900;4.748;2023-03-01T09:34:35;6.05;;;3.60;;
74963;SDS011;63521;51.900;4.748;2023-03-01T09:37:20;5.55;;;3.05;;
74963;SDS011;63521;51.900;4.748;2023-03-01T09:39:46;6.90;;;3.33;;
74963;SDS011;63521;51.900;4.748;2023-03-01T09:42:11;5.13;;;3.08;;
74963;SDS011;63521;51.900;4.748;2023-03-01T09:47:21;5.22;;;2.92;;
74963;SDS011;63521;51.900;4.748;2023-03-01T09:50:32;6.78;;;3.35;;
74963;SDS011;63521;51.900;4.748;2023-03-01T09:55:26;5.25;;;3.45;;
74963;SDS011;63521;51.900;4.748;2023-03-01T09:57:59;5.45;;;3.28;;
74963;SDS011;63521;51.900;4.748;2023-03-01T10:03:26;5.53;;;2.70;;
74963;SDS011;63521;51.900;4.748;2023-03-01T10:05:56;6.03;;;2.88;;
74963;SDS011;63521;51.900;4.748;2023-03-01T10:11:05;4.22;;;2.67;;
74963;SDS011;63521;51.900;4.748;2023-03-01T10:16:57;4.28;;;2.83;;
74963;SDS011;63521;51.900;4.748;2023-03-01T10:19:40;4.30;;;2.95;;
74963;SDS011;63521;51.900;4.748;2023-03-01T10:22:19;4.90;;;2.55;;
74963;SDS011;63521;51.900;4.748;2023-03-01T10:24:50;4.53;;;2.88;;
74963;SDS011;63521;51.900;4.748;2023-03-01T10:27:29;3.85;;;2.47;;
74963;SDS011;63521;51.900;4.748;2023-03-01T10:30:19;3.47;;;2.13;;
74963;SDS011;63521;51.900;4.748;2023-03-01T10:32:46;4.25;;;2.42;;
74963;SDS011;63521;51.900;4.748;2023-03-01T10:35:35;3.55;;;2.35;;
74963;SDS011;63521;51.900;4.748;2023-03-01T10:38:05;2.88;;;2.10;;
74963;SDS011;63521;51.900;4.748;2023-03-01T10:40:32;3.05;;;1.88;;
74963;SDS011;63521;51.900;4.748;2023-03-01T10:42:59;3.55;;;2.17;;
74963;SDS011;63521;51.900;4.748;2023-03-01T10:48:05;7.10;;;2.87;;
74963;SDS011;63521;51.900;4.748;2023-03-01T10:50:37;3.63;;;2.03;;
74963;SDS011;63521;51.900;4.748;2023-03-01T10:53:04;5.78;;;2.20;;
74963;SDS011;63521;51.900;4.748;2023-03-01T10:55:38;5.50;;;2.63;;
74963;SDS011;63521;51.900;4.748;2023-03-01T10:58:16;4.50;;;2.00;;
74963;SDS011;63521;51.900;4.748;2023-03-01T11:03:13;3.08;;;2.30;;
74963;SDS011;63521;51.900;4.748;2023-03-01T11:08:31;4.20;;;2.55;;
74963;SDS011;63521;51.900;4.748;2023-03-01T11:13:37;5.35;;;2.60;;
74963;SDS011;63521;51.900;4.748;2023-03-01T11:16:12;4.53;;;2.25;;
74963;SDS011;63521;51.900;4.748;2023-03-01T11:18:37;3.65;;;2.20;;
74963;SDS011;63521;51.900;4.748;2023-03-01T11:21:03;5.50;;;2.58;;
74963;SDS011;63521;51.900;4.748;2023-03-01T11:23:30;4.28;;;2.55;;
74963;SDS011;63521;51.900;4.748;2023-03-01T11:25:58;9.30;;;2.78;;
74963;SDS011;63521;51.900;4.748;2023-03-01T11:28:25;4.07;;;2.53;;
74963;SDS011;63521;51.900;4.748;2023-03-01T11:39:02;3.60;;;2.50;;
74963;SDS011;63521;51.900;4.748;2023-03-01T11:41:31;4.05;;;2.30;;
74963;SDS011;63521;51.900;4.748;2023-03-01T11:44:03;4.45;;;2.67;;
74963;SDS011;63521;51.900;4.748;2023-03-01T12:09:36;5.93;;;2.45;;
74963;SDS011;63521;51.900;4.748;2023-03-01T12:21:12;4.20;;;2.65;;
74963;SDS011;63521;51.900;4.748;2023-03-01T12:24:04;3.58;;;2.30;;
74963;SDS011;63521;51.900;4.748;2023-03-01T12:26:33;3.22;;;2.05;;
74963;SDS011;63521;51.900;4.748;2023-03-01T12:42:41;4.50;;;2.83;;
74963;SDS011;63521;51.900;4.748;2023-03-01T12:51:07;3.53;;;2.35;;
74963;SDS011;63521;51.900;4.748;2023-03-01T12:53:39;4.32;;;2.38;;
74963;SDS011;63521;51.900;4.748;2023-03-01T12:56:19;4.07;;;2.60;;
74963;SDS011;63521;51.900;4.748;2023-03-01T13:15:24;5.63;;;2.70;;
74963;SDS011;63521;51.900;4.748;2023-03-01T13:17:51;5.53;;;2.92;;
74963;SDS011;63521;51.900;4.748;2023-03-01T13:20:20;4.93;;;2.97;;
74963;SDS011;63521;51.900;4.748;2023-03-01T13:22:48;5.57;;;2.80;;
74963;SDS011;63521;51.900;4.748;2023-03-01T13:25:29;5.25;;;2.47;;
74963;SDS011;63521;51.900;4.748;2023-03-01T13:30:58;4.05;;;2.42;;
74963;SDS011;63521;51.900;4.748;2023-03-01T13:35:53;4.85;;;2.40;;
74963;SDS011;63521;51.900;4.748;2023-03-01T13:41:17;4.18;;;2.10;;
74963;SDS011;63521;51.900;4.748;2023-03-01T13:46:45;4.93;;;2.70;;
74963;SDS011;63521;51.900;4.748;2023-03-01T13:49:16;5.22;;;2.25;;
74963;SDS011;63521;51.900;4.748;2023-03-01T13:51:42;3.50;;;2.28;;
74963;SDS011;63521;51.900;4.748;2023-03-01T13:54:12;3.50;;;1.95;;
74963;SDS011;63521;51.900;4.748;2023-03-01T13:56:37;4.57;;;2.67;;
74963;SDS011;63521;51.900;4.748;2023-03-01T13:59:15;4.45;;;2.20;;
74963;SDS011;63521;51.900;4.748;2023-03-01T14:01:42;4.38;;;2.20;;
74963;SDS011;63521;51.900;4.748;2023-03-01T14:04:21;3.45;;;2.33;;
74963;SDS011;63521;51.900;4.748;2023-03-01T14:06:48;3.78;;;2.20;;
74963;SDS011;63521;51.900;4.748;2023-03-01T14:09:21;4.15;;;2.40;;
74963;SDS011;63521;51.900;4.748;2023-03-01T14:17:21;4.72;;;2.30;;
74963;SDS011;63521;51.900;4.748;2023-03-01T14:22:46;3.97;;;2.15;;
74963;SDS011;63521;51.900;4.748;2023-03-01T14:25:34;4.43;;;2.30;;
74963;SDS011;63521;51.900;4.748;2023-03-01T14:30:41;4.07;;;2.30;;
74963;SDS011;63521;51.900;4.748;2023-03-01T14:33:21;3.60;;;2.30;;
74963;SDS011;63521;51.900;4.748;2023-03-01T14:38:45;6.20;;;2.17;;
74963;SDS011;63521;51.900;4.748;2023-03-01T14:41:21;4.22;;;2.55;;
74963;SDS011;63521;51.900;4.748;2023-03-01T14:49:21;3.42;;;2.13;;
74963;SDS011;63521;51.900;4.748;2023-03-01T14:52:02;5.78;;;2.90;;
74963;SDS011;63521;51.900;4.748;2023-03-01T14:54:46;3.15;;;2.30;;
74963;SDS011;63521;51.900;4.748;2023-03-01T14:57:14;4.43;;;2.67;;
74963;SDS011;63521;51.900;4.748;2023-03-01T14:59:44;4.75;;;2.97;;
74963;SDS011;63521;51.900;4.748;2023-03-01T15:02:15;5.82;;;2.88;;
74963;SDS011;63521;51.900;4.748;2023-03-01T15:04:43;3.90;;;2.40;;
74963;SDS011;63521;51.900;4.748;2023-03-01T15:07:11;4.03;;;2.28;;
74963;SDS011;63521;51.900;4.748;2023-03-01T15:09:38;4.25;;;2.25;;
74963;SDS011;63521;51.900;4.748;2023-03-01T15:14:50;3.55;;;2.45;;
74963;SDS011;63521;51.900;4.748;2023-03-01T15:17:36;5.03;;;2.75;;
74963;SDS011;63521;51.900;4.748;2023-03-01T15:20:07;5.20;;;2.45;;
74963;SDS011;63521;51.900;4.748;2023-03-01T15:22:43;4.80;;;2.63;;
74963;SDS011;63521;51.900;4.748;2023-03-01T15:27:46;5.18;;;2.50;;
74963;SDS011;63521;51.900;4.748;2023-03-01T15:30:20;5.28;;;2.50;;
74963;SDS011;63521;51.900;4.748;2023-03-01T15:32:47;4.22;;;2.55;;
74963;SDS011;63521;51.900;4.748;2023-03-01T15:35:33;4.80;;;2.58;;
74963;SDS011;63521;51.900;4.748;2023-03-01T15:38:23;4.65;;;2.30;;
74963;SDS011;63521;51.900;4.748;2023-03-01T15:40:53;6.05;;;2.90;;
74963;SDS011;63521;51.900;4.748;2023-03-01T15:46:14;4.93;;;2.75;;
74963;SDS011;63521;51.900;4.748;2023-03-01T15:48:48;4.43;;;2.83;;
74963;SDS011;63521;51.900;4.748;2023-03-01T15:51:17;4.75;;;2.85;;
74963;SDS011;63521;51.900;4.748;2023-03-01T15:53:51;5.68;;;2.95;;
74963;SDS011;63521;51.900;4.748;2023-03-01T15:56:17;5.03;;;2.67;;
74963;SDS011;63521;51.900;4.748;2023-03-01T15:58:43;4.47;;;2.67;;
74963;SDS011;63521;51.900;4.748;2023-03-01T16:01:10;4.72;;;2.60;;
74963;SDS011;63521;51.900;4.748;2023-03-01T16:03:41;6.05;;;2.50;;
74963;SDS011;63521;51.900;4.748;2023-03-01T16:06:08;4.85;;;2.60;;
74963;SDS011;63521;51.900;4.748;2023-03-01T16:08:35;4.15;;;2.40;;
74963;SDS011;63521;51.900;4.748;2023-03-01T16:11:00;4.47;;;2.17;;
74963;SDS011;63521;51.900;4.748;2023-03-01T16:13:29;4.28;;;2.70;;
74963;SDS011;63521;51.900;4.748;2023-03-01T16:15:56;5.22;;;2.47;;
74963;SDS011;63521;51.900;4.748;2023-03-01T16:18:21;4.88;;;2.50;;
74963;SDS011;63521;51.900;4.748;2023-03-01T16:20:47;4.25;;;2.58;;
74963;SDS011;63521;51.900;4.748;2023-03-01T16:23:13;4.07;;;2.38;;
74963;SDS011;63521;51.900;4.748;2023-03-01T16:25:39;5.13;;;2.65;;
74963;SDS011;63521;51.900;4.748;2023-03-01T16:28:05;4.38;;;2.70;;
74963;SDS011;63521;51.900;4.748;2023-03-01T16:30:33;3.70;;;2.20;;
74963;SDS011;63521;51.900;4.748;2023-03-01T16:33:00;4.47;;;2.45;;
74963;SDS011;63521;51.900;4.748;2023-03-01T16:35:25;5.10;;;2.70;;
74963;SDS011;63521;51.900;4.748;2023-03-01T16:37:51;4.97;;;2.60;;
74963;SDS011;63521;51.900;4.748;2023-03-01T16:42:46;3.35;;;2.30;;
74963;SDS011;63521;51.900;4.748;2023-03-01T16:45:12;4.53;;;2.60;;
74963;SDS011;63521;51.900;4.748;2023-03-01T16:47:37;4.53;;;2.22;;
74963;SDS011;63521;51.900;4.748;2023-03-01T16:50:03;4.25;;;2.38;;
74963;SDS011;63521;51.900;4.748;2023-03-01T16:52:28;3.03;;;2.08;;
74963;SDS011;63521;51.900;4.748;2023-03-01T16:54:53;3.97;;;2.20;;
74963;SDS011;63521;51.900;4.748;2023-03-01T16:57:19;4.82;;;2.22;;
74963;SDS011;63521;51.900;4.748;2023-03-01T16:59:44;5.00;;;2.35;;
74963;SDS011;63521;51.900;4.748;2023-03-01T17:02:11;4.53;;;2.22;;
74963;SDS011;63521;51.900;4.748;2023-03-01T17:04:37;4.60;;;2.58;;
74963;SDS011;63521;51.900;4.748;2023-03-01T17:07:06;3.20;;;2.20;;
74963;SDS011;63521;51.900;4.748;2023-03-01T17:09:35;4.28;;;2.60;;
74963;SDS011;63521;51.900;4.748;2023-03-01T17:12:14;4.47;;;2.35;;
74963;SDS011;63521;51.900;4.748;2023-03-01T17:15:25;4.35;;;2.28;;
74963;SDS011;63521;51.900;4.748;2023-03-01T17:17:59;5.45;;;2.08;;
74963;SDS011;63521;51.900;4.748;2023-03-01T17:20:25;3.53;;;2.15;;
74963;SDS011;63521;51.900;4.748;2023-03-01T17:22:50;3.70;;;2.22;;
74963;SDS011;63521;51.900;4.748;2023-03-01T17:25:17;4.57;;;2.30;;
74963;SDS011;63521;51.900;4.748;2023-03-01T17:27:43;4.78;;;2.20;;
74963;SDS011;63521;51.900;4.748;2023-03-01T17:30:09;4.65;;;2.50;;
74963;SDS011;63521;51.900;4.748;2023-03-01T17:32:36;5.35;;;2.28;;
74963;SDS011;63521;51.900;4.748;2023-03-01T17:35:01;3.35;;;1.92;;
74963;SDS011;63521;51.900;4.748;2023-03-01T17:37:27;4.65;;;2.22;;
74963;SDS011;63521;51.900;4.748;2023-03-01T17:39:52;4.35;;;2.17;;
74963;SDS011;63521;51.900;4.748;2023-03-01T17:42:17;3.50;;;2.35;;
74963;SDS011;63521;51.900;4.748;2023-03-01T17:44:43;4.10;;;2.25;;
74963;SDS011;63521;51.900;4.748;2023-03-01T17:47:08;3.33;;;2.08;;
74963;SDS011;63521;51.900;4.748;2023-03-01T17:49:34;3.22;;;2.20;;
74963;SDS011;63521;51.900;4.748;2023-03-01T17:51:59;4.15;;;2.35;;
74963;SDS011;63521;51.900;4.748;2023-03-01T17:54:25;5.53;;;2.58;;
74963;SDS011;63521;51.900;4.748;2023-03-01T17:56:50;4.25;;;2.30;;
74963;SDS011;63521;51.900;4.748;2023-03-01T17:59:16;3.95;;;2.20;;
74963;SDS011;63521;51.900;4.748;2023-03-01T18:01:45;4.30;;;2.20;;
74963;SDS011;63521;51.900;4.748;2023-03-01T18:04:11;4.25;;;2.33;;
74963;SDS011;63521;51.900;4.748;2023-03-01T18:06:36;4.10;;;2.22;;
74963;SDS011;63521;51.900;4.748;2023-03-01T18:09:02;5.35;;;2.58;;
74963;SDS011;63521;51.900;4.748;2023-03-01T18:11:28;4.72;;;2.22;;
74963;SDS011;63521;51.900;4.748;2023-03-01T18:13:53;3.75;;;2.30;;
74963;SDS011;63521;51.900;4.748;2023-03-01T18:16:20;5.20;;;2.50;;
74963;SDS011;63521;51.900;4.748;2023-03-01T18:18:46;3.90;;;2.10;;
74963;SDS011;63521;51.900;4.748;2023-03-01T18:21:13;3.65;;;2.00;;
74963;SDS011;63521;51.900;4.748;2023-03-01T18:23:39;5.60;;;2.40;;
74963;SDS011;63521;51.900;4.748;2023-03-01T18:26:09;5.47;;;2.50;;
74963;SDS011;63521;51.900;4.748;2023-03-01T18:28:36;4.97;;;2.40;;
74963;SDS011;63521;51.900;4.748;2023-03-01T18:31:05;4.32;;;2.30;;
74963;SDS011;63521;51.900;4.748;2023-03-01T18:33:32;3.88;;;2.30;;
74963;SDS011;63521;51.900;4.748;2023-03-01T18:35:58;5.40;;;2.47;;
74963;SDS011;63521;51.900;4.748;2023-03-01T18:38:24;4.63;;;2.20;;
74963;SDS011;63521;51.900;4.748;2023-03-01T18:40:52;3.30;;;1.80;;
74963;SDS011;63521;51.900;4.748;2023-03-01T18:43:18;3.30;;;2.15;;
74963;SDS011;63521;51.900;4.748;2023-03-01T18:45:43;3.65;;;1.92;;
74963;SDS011;63521;51.900;4.748;2023-03-01T18:48:10;3.72;;;1.95;;
74963;SDS011;63521;51.900;4.748;2023-03-01T18:50:38;4.47;;;2.47;;
74963;SDS011;63521;51.900;4.748;2023-03-01T18:53:04;2.88;;;1.95;;
74963;SDS011;63521;51.900;4.748;2023-03-01T18:55:29;3.38;;;1.98;;
74963;SDS011;63521;51.900;4.748;2023-03-01T18:57:55;3.75;;;2.00;;
74963;SDS011;63521;51.900;4.748;2023-03-01T19:00:20;3.60;;;1.90;;
74963;SDS011;63521;51.900;4.748;2023-03-01T19:02:46;3.50;;;1.90;;
74963;SDS011;63521;51.900;4.748;2023-03-01T19:05:12;4.63;;;2.10;;
74963;SDS011;63521;51.900;4.748;2023-03-01T19:07:37;3.20;;;1.95;;
74963;SDS011;63521;51.900;4.748;2023-03-01T19:10:03;2.85;;;1.35;;
74963;SDS011;63521;51.900;4.748;2023-03-01T19:12:28;2.70;;;1.80;;
74963;SDS011;63521;51.900;4.748;2023-03-01T19:14:55;5.18;;;1.95;;
74963;SDS011;63521;51.900;4.748;2023-03-01T19:17:21;3.22;;;1.80;;
74963;SDS011;63521;51.900;4.748;2023-03-01T19:19:49;3.42;;;1.98;;
74963;SDS011;63521;51.900;4.748;2023-03-01T19:22:15;3.03;;;1.88;;
74963;SDS011;63521;51.900;4.748;2023-03-01T19:24:40;3.63;;;1.85;;
74963;SDS011;63521;51.900;4.748;2023-03-01T19:27:06;3.20;;;1.85;;
74963;SDS011;63521;51.900;4.748;2023-03-01T19:29:31;2.50;;;1.67;;
74963;SDS011;63521;51.900;4.748;2023-03-01T19:31:57;3.30;;;1.60;;
74963;SDS011;63521;51.900;4.748;2023-03-01T19:34:23;3.88;;;2.00;;
74963;SDS011;63521;51.900;4.748;2023-03-01T19:36:49;3.47;;;1.95;;
74963;SDS011;63521;51.900;4.748;2023-03-01T19:39:14;3.10;;;1.83;;
74963;SDS011;63521;51.900;4.748;2023-03-01T19:41:40;3.30;;;1.77;;
74963;SDS011;63521;51.900;4.748;2023-03-01T19:44:07;3.22;;;2.03;;
74963;SDS011;63521;51.900;4.748;2023-03-01T19:46:32;3.17;;;1.77;;
74963;SDS011;63521;51.900;4.748;2023-03-01T19:48:58;4.47;;;2.05;;
74963;SDS011;63521;51.900;4.748;2023-03-01T19:51:25;4.25;;;1.70;;
74963;SDS011;63521;51.900;4.748;2023-03-01T19:53:51;4.10;;;2.20;;
74963;SDS011;63521;51.900;4.748;2023-03-01T19:56:17;3.13;;;1.90;;
74963;SDS011;63521;51.900;4.748;2023-03-01T19:58:43;3.97;;;2.00;;
74963;SDS011;63521;51.900;4.748;2023-03-01T20:01:15;2.63;;;1.77;;
74963;SDS011;63521;51.900;4.748;2023-03-01T20:03:43;3.95;;;2.03;;
74963;SDS011;63521;51.900;4.748;2023-03-01T20:06:10;2.38;;;1.60;;
74963;SDS011;63521;51.900;4.748;2023-03-01T20:08:45;3.17;;;2.00;;
74963;SDS011;63521;51.900;4.748;2023-03-01T20:11:13;3.58;;;1.83;;
74963;SDS011;63521;51.900;4.748;2023-03-01T20:13:39;3.00;;;1.75;;